sensor_id;sensor_type;location;lat;lon;timestamp;pressure;altitude;pressure_sealevel;temperature;humidity
54854;BME280;40747;49.480;8.658;2023-11-21T00:02:10;99676.41;;;9.45;100.00
54854;BME280;40747;49.480;8.658;2023-11-21T00:04:36;99673.00;;;9.43;100.00
54854;BME280;40747;49.480;8.658;2023-11-21T00:07:01;99674.03;;;9.39;100.00
54854;BME280;40747;49.480;8.658;2023-11-21T00:09:26;99676.53;;;9.42;100.00
54854;BME280;40747;49.480;8.658;2023-11-21T00:11:51;99676.00;;;9.32;100.00
54854;BME280;40747;49.480;8.658;2023-11-21T00:14:17;99664.38;;;9.39;100.00
54854;BME280;40747;49.480;8.658;2023-11-21T00:16:42;99673.06;;;9.41;100.00
54854;BME280;40747;49.480;8.658;2023-11-21T00:19:08;99677.38;;;9.42;100.00
54854;BME280;40747;49.480;8.658;2023-11-21T00:21:33;99675.69;;;9.41;100.00
54854;BME280;40747;49.480;8.658;2023-11-21T00:23:58;99679.38;;;9.35;100.00
54854;BME280;40747;49.480;8.658;2023-11-21T00:26:23;99672.31;;;9.38;100.00
54854;BME280;40747;49.480;8.658;2023-11-21T00:28:49;99670.00;;;9.28;100.00
54854;BME280;40747;49.480;8.658;2023-11-21T00:31:15;99678.47;;;9.37;100.00
54854;BME280;40747;49.480;8.658;2023-11-21T00:33:40;99672.38;;;9.36;100.00
54854;BME280;40747;49.480;8.658;2023-11-21T00:36:06;99673.09;;;9.40;100.00
54854;BME280;40747;49.480;8.658;2023-11-21T00:38:34;99674.72;;;9.44;100.00
54854;BME280;40747;49.480;8.658;2023-11-21T00:41:00;99664.91;;;9.49;100.00
54854;BME280;40747;49.480;8.658;2023-11-21T00:43:25;99665.81;;;9.48;100.00
54854;BME280;40747;49.480;8.658;2023-11-21T00:45:50;99671.50;;;9.35;100.00
54854;BME280;40747;49.480;8.658;2023-11-21T00:48:16;99661.09;;;9.32;100.00
54854;BME280;40747;49.480;8.658;2023-11-21T00:50:41;99665.97;;;9.43;100.00
54854;BME280;40747;49.480;8.658;2023-11-21T00:53:07;99666.19;;;9.37;100.00
54854;BME280;40747;49.480;8.658;2023-11-21T00:55:33;99670.38;;;9.43;100.00
54854;BME280;40747;49.480;8.658;2023-11-21T00:57:58;99661.69;;;9.41;100.00
54854;BME280;40747;49.480;8.658;2023-11-21T01:00:24;99663.34;;;9.43;100.00
54854;BME280;40747;49.480;8.658;2023-11-21T01:02:50;99662.66;;;9.38;100.00
54854;BME280;40747;49.480;8.658;2023-11-21T01:05:15;99668.72;;;9.40;100.00
54854;BME280;40747;49.480;8.658;2023-11-21T01:07:41;99666.84;;;9.44;100.00
54854;BME280;40747;49.480;8.658;2023-11-21T01:10:06;99671.84;;;9.50;100.00
54854;BME280;40747;49.480;8.658;2023-11-21T01:12:34;99671.00;;;9.49;100.00
54854;BME280;40747;49.480;8.658;2023-11-21T01:15:01;99668.50;;;9.46;100.00
54854;BME280;40747;49.480;8.658;2023-11-21T01:17:26;99673.56;;;9.51;100.00
54854;BME280;40747;49.480;8.658;2023-11-21T01:19:52;99673.75;;;9.46;100.00
54854;BME280;40747;49.480;8.658;2023-11-21T01:22:17;99674.72;;;9.44;100.00
54854;BME280;40747;49.480;8.658;2023-11-21T01:24:44;99678.88;;;9.49;100.00
54854;BME280;40747;49.480;8.658;2023-11-21T01:27:10;99677.16;;;9.48;100.00
54854;BME280;40747;49.480;8.658;2023-11-21T01:29:35;99679.69;;;9.51;100.00
54854;BME280;40747;49.480;8.658;2023-11-21T01:32:02;99680.38;;;9.57;100.00
54854;BME280;40747;49.480;8.658;2023-11-21T01:34:27;99676.81;;;9.58;100.00
54854;BME280;40747;49.480;8.658;2023-11-21T01:36:53;99667.41;;;9.52;100.00
54854;BME280;40747;49.480;8.658;2023-11-21T01:39:18;99679.44;;;9.58;100.00
54854;BME280;40747;49.480;8.658;2023-11-21T01:41:49;99678.72;;;9.54;100.00
54854;BME280;40747;49.480;8.658;2023-11-21T01:44:14;99685.66;;;9.57;100.00
54854;BME280;40747;49.480;8.658;2023-11-21T01:46:40;99677.56;;;9.61;100.00
54854;BME280;40747;49.480;8.658;2023-11-21T01:49:06;99680.31;;;9.58;100.00
54854;BME280;40747;49.480;8.658;2023-11-21T01:51:32;99680.53;;;9.52;100.00
54854;BME280;40747;49.480;8.658;2023-11-21T01:53:58;99674.44;;;9.51;100.00
54854;BME280;40747;49.480;8.658;2023-11-21T01:56:24;99679.56;;;9.55;100.00
54854;BME280;40747;49.480;8.658;2023-11-21T01:58:51;99675.84;;;9.60;100.00
54854;BME280;40747;49.480;8.658;2023-11-21T02:01:16;99677.41;;;9.66;100.00
54854;BME280;40747;49.480;8.658;2023-11-21T02:03:44;99674.50;;;9.74;100.00
54854;BME280;40747;49.480;8.658;2023-11-21T02:06:09;99672.25;;;9.63;100.00
54854;BME280;40747;49.480;8.658;2023-11-21T02:08:34;99670.38;;;9.66;100.00
54854;BME280;40747;49.480;8.658;2023-11-21T02:11:02;99666.81;;;9.67;100.00
54854;BME280;40747;49.480;8.658;2023-11-21T02:13:28;99667.06;;;9.61;100.00
54854;BME280;40747;49.480;8.658;2023-11-21T02:15:53;99665.09;;;9.66;100.00
54854;BME280;40747;49.480;8.658;2023-11-21T02:18:19;99670.38;;;9.66;100.00
54854;BME280;40747;49.480;8.658;2023-11-21T02:20:44;99675.53;;;9.70;100.00
54854;BME280;40747;49.480;8.658;2023-11-21T02:23:11;99684.31;;;9.68;100.00
54854;BME280;40747;49.480;8.658;2023-11-21T02:25:38;99680.09;;;9.64;100.00
54854;BME280;40747;49.480;8.658;2023-11-21T02:28:03;99687.88;;;9.67;100.00
54854;BME280;40747;49.480;8.658;2023-11-21T02:30:29;99685.22;;;9.67;100.00
54854;BME280;40747;49.480;8.658;2023-11-21T02:32:58;99681.84;;;9.64;100.00
54854;BME280;40747;49.480;8.658;2023-11-21T02:35:23;99677.47;;;9.64;100.00
54854;BME280;40747;49.480;8.658;2023-11-21T02:37:51;99681.09;;;9.60;100.00
54854;BME280;40747;49.480;8.658;2023-11-21T02:40:16;99681.81;;;9.65;100.00
54854;BME280;40747;49.480;8.658;2023-11-21T02:42:50;99682.66;;;9.66;100.00
54854;BME280;40747;49.480;8.658;2023-11-21T02:45:17;99674.78;;;9.66;100.00
54854;BME280;40747;49.480;8.658;2023-11-21T02:47:43;99657.34;;;9.63;100.00
54854;BME280;40747;49.480;8.658;2023-11-21T02:50:09;99673.41;;;9.56;100.00
54854;BME280;40747;49.480;8.658;2023-11-21T02:52:35;99672.09;;;9.67;100.00
54854;BME280;40747;49.480;8.658;2023-11-21T02:55:03;99663.84;;;9.77;100.00
54854;BME280;40747;49.480;8.658;2023-11-21T02:57:29;99659.63;;;9.73;100.00
54854;BME280;40747;49.480;8.658;2023-11-21T02:59:55;99669.38;;;9.71;100.00
54854;BME280;40747;49.480;8.658;2023-11-21T03:02:20;99660.94;;;9.61;100.00
54854;BME280;40747;49.480;8.658;2023-11-21T03:04:46;99671.03;;;9.73;100.00
54854;BME280;40747;49.480;8.658;2023-11-21T03:07:13;99666.47;;;9.77;100.00
54854;BME280;40747;49.480;8.658;2023-11-21T03:09:38;99673.59;;;9.75;100.00
54854;BME280;40747;49.480;8.658;2023-11-21T03:12:04;99658.88;;;9.69;100.00
54854;BME280;40747;49.480;8.658;2023-11-21T03:14:30;99661.69;;;9.64;100.00
54854;BME280;40747;49.480;8.658;2023-11-21T03:16:55;99670.38;;;9.66;100.00
54854;BME280;40747;49.480;8.658;2023-11-21T03:19:20;99653.16;;;9.58;100.00
54854;BME280;40747;49.480;8.658;2023-11-21T03:21:45;99677.34;;;9.67;100.00
54854;BME280;40747;49.480;8.658;2023-11-21T03:24:11;99666.66;;;9.72;100.00
54854;BME280;40747;49.480;8.658;2023-11-21T03:26:36;99663.56;;;9.61;100.00
54854;BME280;40747;49.480;8.658;2023-11-21T03:29:03;99668.31;;;9.75;100.00
54854;BME280;40747;49.480;8.658;2023-11-21T03:31:29;99676.00;;;9.81;100.00
54854;BME280;40747;49.480;8.658;2023-11-21T03:33:55;99682.25;;;9.77;100.00
54854;BME280;40747;49.480;8.658;2023-11-21T03:36:20;99685.06;;;9.72;100.00
54854;BME280;40747;49.480;8.658;2023-11-21T03:38:47;99676.97;;;9.78;100.00
54854;BME280;40747;49.480;8.658;2023-11-21T03:41:13;99686.06;;;9.70;100.00
54854;BME280;40747;49.480;8.658;2023-11-21T03:43:38;99682.50;;;9.71;100.00
54854;BME280;40747;49.480;8.658;2023-11-21T03:46:03;99685.84;;;9.74;100.00
54854;BME280;40747;49.480;8.658;2023-11-21T03:48:29;99676.09;;;9.78;100.00
54854;BME280;40747;49.480;8.658;2023-11-21T03:50:54;99676.09;;;9.78;100.00
54854;BME280;40747;49.480;8.658;2023-11-21T03:53:20;99690.81;;;9.82;100.00
54854;BME280;40747;49.480;8.658;2023-11-21T03:55:45;99684.72;;;9.81;100.00
54854;BME280;40747;49.480;8.658;2023-11-21T03:58:10;99683.97;;;9.78;100.00
54854;BME280;40747;49.480;8.658;2023-11-21T04:00:36;99685.69;;;9.79;100.00
54854;BME280;40747;49.480;8.658;2023-11-21T04:03:01;99694.41;;;9.81;100.00
54854;BME280;40747;49.480;8.658;2023-11-21T04:05:26;99686.38;;;9.84;100.00
54854;BME280;40747;49.480;8.658;2023-11-21T04:07:51;99682.78;;;9.87;100.00
54854;BME280;40747;49.480;8.658;2023-11-21T04:10:17;99690.53;;;9.90;100.00
54854;BME280;40747;49.480;8.658;2023-11-21T04:12:43;99697.81;;;9.83;100.00
54854;BME280;40747;49.480;8.658;2023-11-21T04:15:09;99695.47;;;9.75;100.00
54854;BME280;40747;49.480;8.658;2023-11-21T04:17:35;99700.16;;;9.67;100.00
54854;BME280;40747;49.480;8.658;2023-11-21T04:20:01;99704.16;;;9.77;100.00
54854;BME280;40747;49.480;8.658;2023-11-21T04:22:27;99700.63;;;9.78;100.00
54854;BME280;40747;49.480;8.658;2023-11-21T04:24:52;99709.59;;;9.73;100.00
54854;BME280;40747;49.480;8.658;2023-11-21T04:27:17;99710.41;;;9.75;100.00
54854;BME280;40747;49.480;8.658;2023-11-21T04:29:43;99701.06;;;9.66;100.00
54854;BME280;40747;49.480;8.658;2023-11-21T04:32:09;99711.31;;;9.74;100.00
54854;BME280;40747;49.480;8.658;2023-11-21T04:34:34;99704.84;;;9.82;100.00
54854;BME280;40747;49.480;8.658;2023-11-21T04:37:00;99714.69;;;9.77;100.00
54854;BME280;40747;49.480;8.658;2023-11-21T04:39:26;99705.38;;;9.68;100.00
54854;BME280;40747;49.480;8.658;2023-11-21T04:41:51;99712.22;;;9.73;100.00
54854;BME280;40747;49.480;8.658;2023-11-21T04:44:16;99716.72;;;9.69;100.00
54854;BME280;40747;49.480;8.658;2023-11-21T04:46:42;99720.16;;;9.71;100.00
54854;BME280;40747;49.480;8.658;2023-11-21T04:49:07;99720.91;;;9.75;100.00
54854;BME280;40747;49.480;8.658;2023-11-21T04:51:32;99724.59;;;9.71;100.00
54854;BME280;40747;49.480;8.658;2023-11-21T04:53:58;99727.09;;;9.74;100.00
54854;BME280;40747;49.480;8.658;2023-11-21T04:56:23;99724.41;;;9.75;100.00
54854;BME280;40747;49.480;8.658;2023-11-21T04:58:48;99736.47;;;9.81;100.00
54854;BME280;40747;49.480;8.658;2023-11-21T05:01:14;99737.19;;;9.84;100.00
54854;BME280;40747;49.480;8.658;2023-11-21T05:03:39;99742.31;;;9.89;100.00
54854;BME280;40747;49.480;8.658;2023-11-21T05:06:04;99744.31;;;9.82;100.00
54854;BME280;40747;49.480;8.658;2023-11-21T05:08:30;99745.16;;;9.83;100.00
54854;BME280;40747;49.480;8.658;2023-11-21T05:10:56;99737.09;;;9.88;100.00
54854;BME280;40747;49.480;8.658;2023-11-21T05:13:21;99737.84;;;9.91;100.00
54854;BME280;40747;49.480;8.658;2023-11-21T05:15:52;99737.94;;;9.88;100.00
54854;BME280;40747;49.480;8.658;2023-11-21T05:18:17;99743.16;;;9.90;100.00
54854;BME280;40747;49.480;8.658;2023-11-21T05:20:43;99743.06;;;9.93;100.00
54854;BME280;40747;49.480;8.658;2023-11-21T05:23:08;99744.94;;;9.89;100.00
54854;BME280;40747;49.480;8.658;2023-11-21T05:25:34;99749.13;;;9.95;100.00
54854;BME280;40747;49.480;8.658;2023-11-21T05:27:59;99751.69;;;9.96;100.00
54854;BME280;40747;49.480;8.658;2023-11-21T05:30:26;99753.41;;;9.97;100.00
54854;BME280;40747;49.480;8.658;2023-11-21T05:32:52;99758.56;;;10.00;100.00
54854;BME280;40747;49.480;8.658;2023-11-21T05:35:17;99770.72;;;10.03;100.00
54854;BME280;40747;49.480;8.658;2023-11-21T05:37:43;99774.13;;;10.07;100.00
54854;BME280;40747;49.480;8.658;2023-11-21T05:40:09;99765.47;;;10.03;100.00
54854;BME280;40747;49.480;8.658;2023-11-21T05:42:35;99782.00;;;10.07;100.00
54854;BME280;40747;49.480;8.658;2023-11-21T05:45:02;99780.91;;;10.12;100.00
54854;BME280;40747;49.480;8.658;2023-11-21T05:47:43;99783.31;;;10.19;100.00
54854;BME280;40747;49.480;8.658;2023-11-21T05:50:12;99783.31;;;10.19;100.00
54854;BME280;40747;49.480;8.658;2023-11-21T05:52:40;99780.75;;;10.17;100.00
54854;BME280;40747;49.480;8.658;2023-11-21T05:55:06;99780.75;;;10.17;100.00
54854;BME280;40747;49.480;8.658;2023-11-21T05:57:33;99784.28;;;10.16;100.00
54854;BME280;40747;49.480;8.658;2023-11-21T05:59:58;99790.38;;;10.18;100.00
54854;BME280;40747;49.480;8.658;2023-11-21T06:02:24;99800.75;;;10.21;100.00
54854;BME280;40747;49.480;8.658;2023-11-21T06:04:50;99800.63;;;10.24;100.00
54854;BME280;40747;49.480;8.658;2023-11-21T06:07:16;99805.88;;;10.26;100.00
54854;BME280;40747;49.480;8.658;2023-11-21T06:09:42;99801.44;;;10.26;100.00
54854;BME280;40747;49.480;8.658;2023-11-21T06:12:07;99810.25;;;10.25;100.00
54854;BME280;40747;49.480;8.658;2023-11-21T06:14:32;99812.09;;;10.23;100.00
54854;BME280;40747;49.480;8.658;2023-11-21T06:17:00;99816.44;;;10.24;100.00
54854;BME280;40747;49.480;8.658;2023-11-21T06:19:25;99811.13;;;10.26;100.00
54854;BME280;40747;49.480;8.658;2023-11-21T06:21:51;99813.56;;;10.30;100.00
54854;BME280;40747;49.480;8.658;2023-11-21T06:24:16;99817.41;;;9.47;100.00
54854;BME280;40747;49.480;8.658;2023-11-21T06:26:42;99821.56;;;9.01;100.00
54854;BME280;40747;49.480;8.658;2023-11-21T06:29:09;99804.75;;;8.20;100.00
54854;BME280;40747;49.480;8.658;2023-11-21T06:31:34;99823.69;;;8.31;100.00
54854;BME280;40747;49.480;8.658;2023-11-21T06:34:00;99826.13;;;8.67;100.00
54854;BME280;40747;49.480;8.658;2023-11-21T06:36:25;99826.97;;;8.96;100.00
54854;BME280;40747;49.480;8.658;2023-11-21T06:38:52;99829.78;;;9.18;100.00
54854;BME280;40747;49.480;8.658;2023-11-21T06:41:17;99839.63;;;9.39;100.00
54854;BME280;40747;49.480;8.658;2023-11-21T06:43:42;99831.22;;;9.54;100.00
54854;BME280;40747;49.480;8.658;2023-11-21T06:46:12;99839.53;;;9.67;100.00
54854;BME280;40747;49.480;8.658;2023-11-21T06:48:42;99835.69;;;9.77;100.00
54854;BME280;40747;49.480;8.658;2023-11-21T06:51:07;99850.09;;;9.91;100.00
54854;BME280;40747;49.480;8.658;2023-11-21T06:53:32;99850.75;;;9.97;100.00
54854;BME280;40747;49.480;8.658;2023-11-21T06:55:58;99858.38;;;10.05;100.00
54854;BME280;40747;49.480;8.658;2023-11-21T06:58:23;99861.72;;;10.09;100.00
54854;BME280;40747;49.480;8.658;2023-11-21T07:00:48;99863.38;;;10.13;100.00
54854;BME280;40747;49.480;8.658;2023-11-21T07:03:15;99867.59;;;10.17;100.00
54854;BME280;40747;49.480;8.658;2023-11-21T07:05:40;99866.63;;;10.20;100.00
54854;BME280;40747;49.480;8.658;2023-11-21T07:08:05;99866.78;;;10.15;100.00
54854;BME280;40747;49.480;8.658;2023-11-21T07:10:32;99864.09;;;10.16;100.00
54854;BME280;40747;49.480;8.658;2023-11-21T07:12:58;99876.06;;;10.25;100.00
54854;BME280;40747;49.480;8.658;2023-11-21T07:15:23;99876.81;;;10.29;100.00
54854;BME280;40747;49.480;8.658;2023-11-21T07:17:49;99876.06;;;10.25;100.00
54854;BME280;40747;49.480;8.658;2023-11-21T07:20:15;99885.31;;;10.12;100.00
54854;BME280;40747;49.480;8.658;2023-11-21T07:22:42;99890.41;;;10.16;100.00
54854;BME280;40747;49.480;8.658;2023-11-21T07:25:07;99894.28;;;10.06;100.00
54854;BME280;40747;49.480;8.658;2023-11-21T07:27:34;99900.50;;;10.04;100.00
54854;BME280;40747;49.480;8.658;2023-11-21T07:30:01;99904.28;;;9.96;100.00
54854;BME280;40747;49.480;8.658;2023-11-21T07:32:29;99906.63;;;9.79;100.00
54854;BME280;40747;49.480;8.658;2023-11-21T07:34:54;99905.13;;;9.72;100.00
54854;BME280;40747;49.480;8.658;2023-11-21T07:37:22;99914.03;;;9.67;100.00
54854;BME280;40747;49.480;8.658;2023-11-21T07:39:47;99910.59;;;9.65;100.00
54854;BME280;40747;49.480;8.658;2023-11-21T07:42:13;99915.59;;;9.46;100.00
54854;BME280;40747;49.480;8.658;2023-11-21T07:44:38;99911.09;;;9.50;100.00
54854;BME280;40747;49.480;8.658;2023-11-21T07:47:04;99918.38;;;9.42;100.00
54854;BME280;40747;49.480;8.658;2023-11-21T07:49:29;99924.47;;;9.44;100.00
54854;BME280;40747;49.480;8.658;2023-11-21T07:51:55;99917.22;;;9.50;100.00
54854;BME280;40747;49.480;8.658;2023-11-21T07:54:20;99927.44;;;9.60;100.00
54854;BME280;40747;49.480;8.658;2023-11-21T07:56:46;99927.38;;;9.61;100.00
54854;BME280;40747;49.480;8.658;2023-11-21T07:59:11;99931.84;;;9.59;100.00
54854;BME280;40747;49.480;8.658;2023-11-21T08:01:37;99922.88;;;9.65;100.00
54854;BME280;40747;49.480;8.658;2023-11-21T08:04:03;99935.88;;;9.70;100.00
54854;BME280;40747;49.480;8.658;2023-11-21T08:06:29;99931.88;;;9.58;100.00
54854;BME280;40747;49.480;8.658;2023-11-21T08:08:55;99933.00;;;9.50;100.00
54854;BME280;40747;49.480;8.658;2023-11-21T08:11:21;99933.91;;;9.49;100.00
54854;BME280;40747;49.480;8.658;2023-11-21T08:13:47;99928.69;;;9.48;100.00
54854;BME280;40747;49.480;8.658;2023-11-21T08:16:12;99929.53;;;9.48;100.00
54854;BME280;40747;49.480;8.658;2023-11-21T08:18:37;99933.44;;;9.37;100.00
54854;BME280;40747;49.480;8.658;2023-11-21T08:21:02;99937.38;;;9.50;100.00
54854;BME280;40747;49.480;8.658;2023-11-21T08:23:29;99934.41;;;9.61;100.00
54854;BME280;40747;49.480;8.658;2023-11-21T08:25:54;99940.38;;;9.66;100.00
54854;BME280;40747;49.480;8.658;2023-11-21T08:28:21;99949.69;;;9.76;100.00
54854;BME280;40747;49.480;8.658;2023-11-21T08:30:51;99947.91;;;9.77;100.00
54854;BME280;40747;49.480;8.658;2023-11-21T08:33:16;99947.09;;;9.75;100.00
54854;BME280;40747;49.480;8.658;2023-11-21T08:35:42;99955.06;;;9.73;100.00
54854;BME280;40747;49.480;8.658;2023-11-21T08:38:07;99959.75;;;9.63;100.00
54854;BME280;40747;49.480;8.658;2023-11-21T08:40:32;99961.06;;;9.77;100.00
54854;BME280;40747;49.480;8.658;2023-11-21T08:42:57;99961.06;;;9.77;100.00
54854;BME280;40747;49.480;8.658;2023-11-21T08:45:24;99965.31;;;9.81;100.00
54854;BME280;40747;49.480;8.658;2023-11-21T08:47:50;99967.25;;;9.76;100.00
54854;BME280;40747;49.480;8.658;2023-11-21T08:50:16;99966.31;;;9.77;100.00
54854;BME280;40747;49.480;8.658;2023-11-21T08:52:41;99969.66;;;9.82;100.00
54854;BME280;40747;49.480;8.658;2023-11-21T08:55:08;99969.75;;;9.79;100.00
54854;BME280;40747;49.480;8.658;2023-11-21T08:57:36;99980.69;;;9.93;100.00
54854;BME280;40747;49.480;8.658;2023-11-21T09:00:03;99979.13;;;9.88;100.00
54854;BME280;40747;49.480;8.658;2023-11-21T09:02:32;99980.84;;;9.89;100.00
54854;BME280;40747;49.480;8.658;2023-11-21T09:05:00;99986.50;;;10.03;100.00
54854;BME280;40747;49.480;8.658;2023-11-21T09:07:28;99986.75;;;9.95;100.00
54854;BME280;40747;49.480;8.658;2023-11-21T09:09:53;99992.06;;;9.94;100.00
54854;BME280;40747;49.480;8.658;2023-11-21T09:12:20;99999.22;;;9.90;100.00
54854;BME280;40747;49.480;8.658;2023-11-21T09:14:45;100001.97;;;9.86;100.00
54854;BME280;40747;49.480;8.658;2023-11-21T09:17:11;100000.38;;;9.81;100.00
54854;BME280;40747;49.480;8.658;2023-11-21T09:19:37;100002.84;;;9.86;100.00
54854;BME280;40747;49.480;8.658;2023-11-21T09:22:03;100013.16;;;9.92;100.00
54854;BME280;40747;49.480;8.658;2023-11-21T09:24:30;100017.56;;;9.92;100.00
54854;BME280;40747;49.480;8.658;2023-11-21T09:26:55;100015.19;;;9.84;100.00
54854;BME280;40747;49.480;8.658;2023-11-21T09:29:21;100017.09;;;9.79;100.00
54854;BME280;40747;49.480;8.658;2023-11-21T09:31:47;100025.38;;;9.66;100.00
54854;BME280;40747;49.480;8.658;2023-11-21T09:34:12;100028.13;;;9.63;100.00
54854;BME280;40747;49.480;8.658;2023-11-21T09:36:38;100034.28;;;9.62;100.00
54854;BME280;40747;49.480;8.658;2023-11-21T09:39:04;100029.75;;;9.67;100.00
54854;BME280;40747;49.480;8.658;2023-11-21T09:41:40;100025.25;;;9.71;100.00
54854;BME280;40747;49.480;8.658;2023-11-21T09:44:09;100034.22;;;9.64;100.00
54854;BME280;40747;49.480;8.658;2023-11-21T09:46:40;100050.69;;;9.71;100.00
54854;BME280;40747;49.480;8.658;2023-11-21T09:49:08;100036.53;;;9.75;100.00
54854;BME280;40747;49.480;8.658;2023-11-21T09:51:39;100046.34;;;9.70;100.00
54854;BME280;40747;49.480;8.658;2023-11-21T09:54:07;100046.19;;;9.74;100.00
54854;BME280;40747;49.480;8.658;2023-11-21T09:56:34;100048.81;;;9.74;100.00
54854;BME280;40747;49.480;8.658;2023-11-21T09:59:01;100045.38;;;9.72;100.00
54854;BME280;40747;49.480;8.658;2023-11-21T10:01:32;100053.94;;;9.79;100.00
54854;BME280;40747;49.480;8.658;2023-11-21T10:03:57;100056.44;;;9.83;100.00
54854;BME280;40747;49.480;8.658;2023-11-21T10:06:25;100057.34;;;9.82;100.00
54854;BME280;40747;49.480;8.658;2023-11-21T10:08:52;100055.47;;;9.86;100.00
54854;BME280;40747;49.480;8.658;2023-11-21T10:11:20;100067.50;;;9.93;100.00
54854;BME280;40747;49.480;8.658;2023-11-21T10:13:47;100065.69;;;9.95;100.00
54854;BME280;40747;49.480;8.658;2023-11-21T10:16:15;100068.47;;;9.91;100.00
54854;BME280;40747;49.480;8.658;2023-11-21T10:18:43;100072.81;;;9.92;100.00
54854;BME280;40747;49.480;8.658;2023-11-21T10:21:09;100067.91;;;9.81;100.00
54854;BME280;40747;49.480;8.658;2023-11-21T10:23:36;100060.72;;;9.86;100.00
54854;BME280;40747;49.480;8.658;2023-11-21T10:26:02;100057.09;;;9.90;100.00
54854;BME280;40747;49.480;8.658;2023-11-21T10:28:27;100063.97;;;9.94;100.00
54854;BME280;40747;49.480;8.658;2023-11-21T10:30:52;100068.56;;;9.88;100.00
54854;BME280;40747;49.480;8.658;2023-11-21T10:33:27;100069.16;;;9.97;100.00
54854;BME280;40747;49.480;8.658;2023-11-21T10:35:52;100070.00;;;9.98;100.00
54854;BME280;40747;49.480;8.658;2023-11-21T10:38:21;100067.41;;;9.96;100.00
54854;BME280;40747;49.480;8.658;2023-11-21T10:40:48;100078.72;;;9.98;100.00
54854;BME280;40747;49.480;8.658;2023-11-21T10:43:14;100073.44;;;10.00;100.00
54854;BME280;40747;49.480;8.658;2023-11-21T10:45:40;100076.94;;;10.00;100.00
54854;BME280;40747;49.480;8.658;2023-11-21T10:48:12;100079.38;;;10.07;100.00
54854;BME280;40747;49.480;8.658;2023-11-21T10:50:40;100075.97;;;10.03;100.00
54854;BME280;40747;49.480;8.658;2023-11-21T10:53:05;100087.41;;;10.02;100.00
54854;BME280;40747;49.480;8.658;2023-11-21T10:55:32;100091.00;;;9.99;100.00
54854;BME280;40747;49.480;8.658;2023-11-21T10:58:02;100090.22;;;9.96;100.00
54854;BME280;40747;49.480;8.658;2023-11-21T11:00:30;100086.81;;;9.92;100.00
54854;BME280;40747;49.480;8.658;2023-11-21T11:02:56;100093.78;;;9.95;100.00
54854;BME280;40747;49.480;8.658;2023-11-21T11:05:28;100095.53;;;9.94;100.00
54854;BME280;40747;49.480;8.658;2023-11-21T11:07:59;100103.72;;;9.85;100.00
54854;BME280;40747;49.480;8.658;2023-11-21T11:10:30;100098.53;;;9.83;100.00
54854;BME280;40747;49.480;8.658;2023-11-21T11:12:56;100099.72;;;9.73;100.00
54854;BME280;40747;49.480;8.658;2023-11-21T11:15:24;100098.59;;;9.80;100.00
54854;BME280;40747;49.480;8.658;2023-11-21T11:17:49;100097.94;;;9.74;100.00
54854;BME280;40747;49.480;8.658;2023-11-21T11:20:16;100099.03;;;9.66;100.00
54854;BME280;40747;49.480;8.658;2023-11-21T11:22:50;100095.00;;;9.55;100.00
54854;BME280;40747;49.480;8.658;2023-11-21T11:36:25;100100.72;;;9.97;100.00
54854;BME280;40747;49.480;8.658;2023-11-21T11:38:51;100102.16;;;10.08;100.00
54854;BME280;40747;49.480;8.658;2023-11-21T11:41:27;100099.03;;;10.22;100.00
54854;BME280;40747;49.480;8.658;2023-11-21T11:43:55;100089.84;;;10.08;100.00
54854;BME280;40747;49.480;8.658;2023-11-21T11:46:20;100086.00;;;10.19;100.00
54854;BME280;40747;49.480;8.658;2023-11-21T11:48:48;100104.97;;;10.28;100.00
54854;BME280;40747;49.480;8.658;2023-11-21T11:51:15;100102.16;;;10.35;100.00
54854;BME280;40747;49.480;8.658;2023-11-21T11:53:43;100102.00;;;10.39;100.00
54854;BME280;40747;49.480;8.658;2023-11-21T11:56:30;100096.50;;;10.47;100.00
54854;BME280;40747;49.480;8.658;2023-11-21T11:59:01;100101.69;;;10.48;100.00
54854;BME280;40747;49.480;8.658;2023-11-21T12:01:28;100103.69;;;10.42;100.00
54854;BME280;40747;49.480;8.658;2023-11-21T12:06:40;100102.41;;;10.27;100.00
54854;BME280;40747;49.480;8.658;2023-11-21T12:09:06;100123.28;;;10.31;100.00
54854;BME280;40747;49.480;8.658;2023-11-21T12:11:32;100109.78;;;10.44;100.00
54854;BME280;40747;49.480;8.658;2023-11-21T12:13:58;100117.72;;;10.42;100.00
54854;BME280;40747;49.480;8.658;2023-11-21T12:16:25;100119.13;;;10.53;100.00
54854;BME280;40747;49.480;8.658;2023-11-21T12:18:53;100124.22;;;10.57;100.00
54854;BME280;40747;49.480;8.658;2023-11-21T12:21:19;100120.34;;;10.69;100.00
54854;BME280;40747;49.480;8.658;2023-11-21T12:23:45;100113.50;;;10.63;100.00
54854;BME280;40747;49.480;8.658;2023-11-21T12:26:11;100122.72;;;10.77;100.00
54854;BME280;40747;49.480;8.658;2023-11-21T12:28:38;100120.88;;;10.79;100.00
54854;BME280;40747;49.480;8.658;2023-11-21T12:31:03;100110.44;;;10.76;100.00
54854;BME280;40747;49.480;8.658;2023-11-21T12:33:32;100115.50;;;10.82;100.00
54854;BME280;40747;49.480;8.658;2023-11-21T12:35:57;100115.38;;;10.60;100.00
54854;BME280;40747;49.480;8.658;2023-11-21T12:38:23;100123.84;;;10.43;100.00
54854;BME280;40747;49.480;8.658;2023-11-21T12:40:50;100127.28;;;10.45;100.00
54854;BME280;40747;49.480;8.658;2023-11-21T12:43:16;100125.84;;;10.35;100.00
54854;BME280;40747;49.480;8.658;2023-11-21T12:45:43;100133.81;;;10.31;100.00
54854;BME280;40747;49.480;8.658;2023-11-21T12:48:09;100135.88;;;10.22;100.00
54854;BME280;40747;49.480;8.658;2023-11-21T12:50:37;100144.13;;;10.39;100.00
54854;BME280;40747;49.480;8.658;2023-11-21T12:53:07;100138.63;;;10.47;100.00
54854;BME280;40747;49.480;8.658;2023-11-21T12:55:43;100143.81;;;10.50;100.00
54854;BME280;40747;49.480;8.658;2023-11-21T12:58:09;100148.06;;;10.54;99.73
54854;BME280;40747;49.480;8.658;2023-11-21T13:00:47;100151.44;;;10.58;99.78
54854;BME280;40747;49.480;8.658;2023-11-21T13:03:14;100153.81;;;10.65;100.00
54854;BME280;40747;49.480;8.658;2023-11-21T13:05:46;100144.91;;;10.70;99.65